createdAt,value
2018-07-23T10:23:34.614Z,43.00
2018-07-23T10:28:25.591Z,43.40
2018-07-23T10:33:19.677Z,42.60
2018-07-23T10:38:14.230Z,42.20
2018-07-23T10:43:09.610Z,41.30
2018-07-23T10:48:03.799Z,42.00
2018-07-23T10:52:58.301Z,43.50
2018-07-23T10:57:53.267Z,43.60
2018-07-23T11:02:48.595Z,42.60
2018-07-23T11:07:43.592Z,40.30
2018-07-23T11:12:40.697Z,37.50
2018-07-23T11:17:38.049Z,37.60
2018-07-23T11:27:44.935Z,35.60
2018-07-23T11:33:25.040Z,33.50
2018-07-23T11:38:16.486Z,35.10
2018-07-23T11:43:16.879Z,33.10
2018-07-23T11:48:38.222Z,32.80
2018-07-23T11:53:34.792Z,34.50
2018-07-23T11:58:32.658Z,35.10
2018-07-23T12:03:32.302Z,34.90
2018-07-23T12:08:31.433Z,33.90
2018-07-23T12:13:33.006Z,32.30
2018-07-23T12:18:49.504Z,31.80
2018-07-23T12:23:49.344Z,31.40
2018-07-23T12:28:47.776Z,32.80
2018-07-23T12:34:01.584Z,32.40
2018-07-23T12:38:59.953Z,31.90
2018-07-23T12:44:38.032Z,31.20
2018-07-23T12:52:11.783Z,30.90
2018-07-23T12:57:08.315Z,30.00
2018-07-23T13:02:13.134Z,30.00
2018-07-23T13:07:13.777Z,30.20
2018-07-23T13:12:14.392Z,30.00
2018-07-23T13:17:30.713Z,30.00
2018-07-23T13:35:40.042Z,30.10
2018-07-23T13:40:42.767Z,30.00
2018-07-23T13:45:44.373Z,31.60
2018-07-23T13:50:47.598Z,31.30
2018-07-23T13:55:42.249Z,30.90
2018-07-23T14:00:46.066Z,31.10
2018-07-23T14:05:56.323Z,31.80
2018-07-23T14:10:54.214Z,32.20
2018-07-23T14:15:57.651Z,31.50
2018-07-23T14:26:12.980Z,32.30
2018-07-23T14:31:20.078Z,31.30
2018-07-23T14:47:34.624Z,31.90
2018-07-23T14:58:10.613Z,31.20
2018-07-23T15:03:10.421Z,30.10
2018-07-23T15:23:03.327Z,29.80
2018-07-23T15:28:25.164Z,32.00
2018-07-23T15:33:28.259Z,32.70
2018-07-23T15:38:34.141Z,32.30
2018-07-23T15:43:58.938Z,33.10
2018-07-23T16:13:49.039Z,34.80
2018-07-23T16:18:49.319Z,35.20
2018-07-23T16:24:01.764Z,37.90
2018-07-23T16:35:56.810Z,36.80
2018-07-23T16:41:13.811Z,37.60
2018-07-23T16:46:12.909Z,37.80
2018-07-23T16:56:45.810Z,38.40
2018-07-23T17:01:43.507Z,38.80
2018-07-23T17:14:40.436Z,38.40
2018-07-23T17:19:35.357Z,38.90
2018-07-23T17:24:59.461Z,38.80
2018-07-23T17:31:00.593Z,38.50
2018-07-23T17:35:54.510Z,38.00
2018-07-23T17:43:14.599Z,38.40
2018-07-23T17:48:07.581Z,38.70
2018-07-23T17:56:33.767Z,38.40
2018-07-23T18:01:20.881Z,38.70
2018-07-23T18:06:15.847Z,39.20
2018-07-23T18:11:10.329Z,39.60
2018-07-23T18:16:05.728Z,39.20
2018-07-23T18:21:00.357Z,39.70
2018-07-23T18:25:55.254Z,39.40
2018-07-23T18:30:49.943Z,39.80
2018-07-23T18:35:42.821Z,40.00
2018-07-23T18:40:38.216Z,39.80
2018-07-23T18:45:31.224Z,39.60
2018-07-23T18:50:24.448Z,40.50
2018-07-23T18:55:17.984Z,40.80
2018-07-23T19:00:11.945Z,41.10
2018-07-23T19:05:04.645Z,41.40
2018-07-23T19:09:59.566Z,42.40
2018-07-23T19:14:53.946Z,42.80
2018-07-23T19:19:47.437Z,42.80
2018-07-23T19:24:42.135Z,43.80
2018-07-23T19:29:33.172Z,44.50
2018-07-23T19:34:29.289Z,44.90
2018-07-23T19:39:23.799Z,44.60
2018-07-23T19:44:17.328Z,45.90
2018-07-23T19:49:09.103Z,45.80
2018-07-23T19:54:02.641Z,46.30
2018-07-23T19:58:55.363Z,46.80
2018-07-23T20:03:50.543Z,47.60
2018-07-23T20:08:46.503Z,48.30
2018-07-23T20:13:41.350Z,48.60
2018-07-23T20:18:35.627Z,49.30
2018-07-23T20:23:30.487Z,50.40
2018-07-23T20:28:24.556Z,50.90
2018-07-23T20:33:19.323Z,51.50
2018-07-23T20:38:14.864Z,51.90
2018-07-23T20:43:09.249Z,52.00
2018-07-23T20:48:01.944Z,52.50
2018-07-23T20:52:57.314Z,52.70
2018-07-23T20:57:52.552Z,53.60
2018-07-23T21:02:46.921Z,54.00
2018-07-23T21:07:41.883Z,54.30
2018-07-23T21:12:37.507Z,54.50
2018-07-23T21:17:35.456Z,55.50
2018-07-23T21:22:31.441Z,56.00
2018-07-23T21:27:26.018Z,56.20
2018-07-23T21:32:22.056Z,56.40
2018-07-23T21:37:16.601Z,56.70
2018-07-23T21:42:11.608Z,57.20
2018-07-23T21:47:07.429Z,57.70
2018-07-23T21:52:03.712Z,57.90
2018-07-23T21:57:00.940Z,58.40
2018-07-23T22:01:54.601Z,58.60
2018-07-23T22:06:52.769Z,58.90
2018-07-23T22:11:46.484Z,59.30
2018-07-23T22:16:42.166Z,59.80
2018-07-23T22:21:51.618Z,60.80
2018-07-23T22:26:46.664Z,62.00
2018-07-23T22:31:47.757Z,62.60
2018-07-23T22:36:44.877Z,62.70
2018-07-23T22:41:41.815Z,63.00
2018-07-23T22:46:44.804Z,63.30
2018-07-23T22:51:42.081Z,63.50
2018-07-23T22:56:42.030Z,63.60
2018-07-23T23:01:40.438Z,64.20
2018-07-23T23:06:38.302Z,65.00
2018-07-23T23:11:39.364Z,65.50
2018-07-23T23:16:41.120Z,66.20
2018-07-23T23:21:41.628Z,66.60
2018-07-23T23:26:40.308Z,66.90
2018-07-23T23:31:43.169Z,67.60
2018-07-23T23:36:41.754Z,68.60
2018-07-23T23:41:47.177Z,68.80
2018-07-23T23:46:44.606Z,69.20
2018-07-23T23:51:46.336Z,69.40
2018-07-23T23:56:44.786Z,70.70
